METAR AND TAF INFORMATION
METAR FOR SBSR
ADDS - METARS form results

(0724 UTC 26 March 2019)
Data provider http://aviationweather.gov/metar/data/
 
METAR text: SBSR 260700Z 00000KT CAVOK 24/18 Q1014
Conditions at: SBSR (SAO JOSE PRETO , BR) observed 0700 UTC 26 March 2019
Temperature: 24.0°C (75°F)
Dewpoint: 18.0°C (64°F) [RH = 69%]
Pressure (altimeter): 29.94 inches Hg (1014.0 mb)
Winds: calm
Visibility: 6 or more miles (10+ km)
Ceiling: ceiling and visibility are OK
Clouds: unknown
Weather: no significant weather observed at this time

 AIRPORT MAP

 RUNWAY INFORMATION
Runway 7 Runway length 5381 ft Runway width 115 ft
Runway elevation 0 ft Runway displaced threshold 0 ft Runway heading 0
Runway 25 Runway length 5381 ft Runway width 115 ft
Runway elevation 0 ft Runway displaced threshold 0 ft Runway heading 0

 AIRPORT FREQUENCIES
Type AFIS Name RDO Frequency 130.85 MHZ

 AIRPORT NEAR NAVIGATION AIDS
Type NDB Name Rio Preto Frequency 420 KHZ



Powered by Virtual Airlines Manager [v2.6.2]